createdAt,value
2019-03-24T00:00:47.297Z,0.00
2019-03-24T00:01:47.274Z,0.00
2019-03-24T00:02:47.270Z,0.00
2019-03-24T00:03:47.270Z,0.00
2019-03-24T00:04:47.267Z,0.00
2019-03-24T00:05:47.306Z,0.00
2019-03-24T00:06:47.259Z,0.00
2019-03-24T00:07:47.262Z,0.00
2019-03-24T00:08:47.255Z,0.00
2019-03-24T00:09:47.256Z,0.00
2019-03-24T00:10:47.291Z,0.00
2019-03-24T00:11:47.250Z,0.00
2019-03-24T00:12:47.247Z,0.00
2019-03-24T00:13:47.252Z,0.00
2019-03-24T00:14:47.248Z,0.00
2019-03-24T00:15:47.268Z,0.00
2019-03-24T00:16:47.242Z,0.00
2019-03-24T00:17:47.248Z,0.00
2019-03-24T00:18:47.236Z,0.00
2019-03-24T00:19:47.248Z,0.00
2019-03-24T00:20:47.271Z,0.00
2019-03-24T00:21:47.235Z,0.00
2019-03-24T00:22:47.229Z,0.00
2019-03-24T00:23:47.228Z,0.00
2019-03-24T00:24:47.227Z,0.00
2019-03-24T00:25:47.251Z,0.00
2019-03-24T00:26:47.225Z,0.00
2019-03-24T00:27:47.220Z,0.00
2019-03-24T00:28:47.217Z,0.00
2019-03-24T00:29:47.223Z,0.00
2019-03-24T00:30:47.240Z,0.00
2019-03-24T00:31:47.210Z,0.00
2019-03-24T00:32:47.236Z,0.00
2019-03-24T00:33:47.208Z,0.00
2019-03-24T00:34:48.151Z,0.00
2019-03-24T00:35:47.205Z,0.00
2019-03-24T00:36:47.231Z,0.00
2019-03-24T00:37:47.203Z,0.00
2019-03-24T00:38:47.193Z,0.00
2019-03-24T00:39:47.197Z,0.00
2019-03-24T00:40:47.223Z,0.00
2019-03-24T00:41:47.192Z,0.00
2019-03-24T00:42:47.216Z,0.00
2019-03-24T00:43:47.188Z,0.00
2019-03-24T00:44:47.195Z,0.00
2019-03-24T00:45:47.202Z,0.00
2019-03-24T00:46:47.213Z,0.00
2019-03-24T00:47:49.384Z,0.00
2019-03-24T00:48:47.177Z,0.00
2019-03-24T00:49:47.182Z,0.00
2019-03-24T00:50:47.206Z,0.00
2019-03-24T00:51:47.173Z,0.00
2019-03-24T00:52:47.173Z,0.00
2019-03-24T00:53:47.173Z,0.00
2019-03-24T00:54:47.167Z,0.00
2019-03-24T00:55:47.191Z,0.00
2019-03-24T00:56:47.164Z,0.00
2019-03-24T00:57:47.159Z,0.00
2019-03-24T00:58:47.158Z,0.00
2019-03-24T00:59:47.163Z,0.00
2019-03-24T01:00:47.185Z,0.00
2019-03-24T01:01:47.154Z,0.00
2019-03-24T01:02:47.154Z,0.00
2019-03-24T01:03:47.150Z,0.00
2019-03-24T01:04:47.150Z,0.00
2019-03-24T01:05:47.175Z,0.00
2019-03-24T01:06:47.144Z,0.00
2019-03-24T01:07:47.140Z,0.00
2019-03-24T01:08:47.153Z,0.00
2019-03-24T01:09:47.138Z,0.00
2019-03-24T01:10:47.171Z,0.00
2019-03-24T01:11:47.137Z,0.00
2019-03-24T01:12:47.135Z,0.00
2019-03-24T01:13:47.135Z,0.00
2019-03-24T01:14:47.134Z,0.00
2019-03-24T01:15:47.855Z,0.00
2019-03-24T01:16:47.126Z,0.00
2019-03-24T01:17:47.122Z,0.00
2019-03-24T01:18:47.131Z,0.00
2019-03-24T01:19:47.116Z,0.00
2019-03-24T01:20:47.147Z,0.00
2019-03-24T01:21:47.124Z,0.00
2019-03-24T01:22:47.115Z,0.00
2019-03-24T01:23:47.111Z,0.00
2019-03-24T01:24:47.112Z,0.00
2019-03-24T01:25:47.136Z,0.00
2019-03-24T01:26:47.108Z,0.00
2019-03-24T01:27:47.111Z,0.00
2019-03-24T01:28:47.107Z,0.00
2019-03-24T01:29:47.101Z,0.00
2019-03-24T01:30:47.130Z,0.00
2019-03-24T01:31:47.101Z,0.00
2019-03-24T01:32:47.097Z,0.00
2019-03-24T01:33:47.104Z,0.00
2019-03-24T01:34:47.096Z,0.00
2019-03-24T01:35:47.121Z,0.00
2019-03-24T01:36:47.094Z,0.00
2019-03-24T01:37:47.088Z,0.00
2019-03-24T01:38:47.090Z,0.00
2019-03-24T01:39:47.218Z,0.00
2019-03-24T01:40:47.113Z,0.00
2019-03-24T01:41:47.085Z,0.00
2019-03-24T01:42:47.080Z,0.00
2019-03-24T01:43:47.078Z,0.00
2019-03-24T01:44:47.077Z,0.00
2019-03-24T01:45:54.408Z,0.00
2019-03-24T01:46:47.070Z,0.00
2019-03-24T01:47:47.073Z,0.00
2019-03-24T01:48:47.069Z,0.00
2019-03-24T01:49:47.067Z,0.00
2019-03-24T01:50:47.090Z,0.00
2019-03-24T01:51:47.061Z,0.00
2019-03-24T01:52:47.054Z,0.00
2019-03-24T01:53:47.060Z,0.00
2019-03-24T01:54:47.090Z,0.00
2019-03-24T01:55:47.056Z,0.00
2019-03-24T01:56:47.052Z,0.00
2019-03-24T01:57:47.049Z,0.00
2019-03-24T01:58:47.075Z,0.00
2019-03-24T01:59:47.043Z,0.00
2019-03-24T02:00:47.078Z,0.00
2019-03-24T02:01:47.044Z,0.00
2019-03-24T02:02:47.043Z,0.00
2019-03-24T02:03:47.040Z,0.00
2019-03-24T02:04:47.069Z,0.00
2019-03-24T02:05:47.032Z,0.00
2019-03-24T02:06:47.031Z,0.00
2019-03-24T02:07:47.029Z,0.00
2019-03-24T02:08:47.028Z,0.00
2019-03-24T02:09:47.055Z,0.00
2019-03-24T02:10:47.024Z,0.00
2019-03-24T02:11:47.023Z,0.00
2019-03-24T02:12:47.020Z,0.00
2019-03-24T02:13:47.022Z,0.00
2019-03-24T02:14:47.047Z,0.00
2019-03-24T02:15:47.017Z,0.00
2019-03-24T02:16:47.013Z,0.00
2019-03-24T02:17:47.548Z,0.00
2019-03-24T02:18:47.010Z,0.00
2019-03-24T02:19:47.049Z,0.00
2019-03-24T02:20:47.004Z,0.00
2019-03-24T02:21:47.004Z,0.00
2019-03-24T02:22:47.001Z,0.00
2019-03-24T02:23:47.000Z,0.00
2019-03-24T02:24:47.031Z,0.00
2019-03-24T02:25:46.999Z,0.00
2019-03-24T02:26:46.994Z,0.00
2019-03-24T02:27:47.000Z,0.00
2019-03-24T02:28:46.989Z,0.00
2019-03-24T02:29:47.021Z,0.00
2019-03-24T02:30:46.990Z,0.00
2019-03-24T02:31:46.992Z,0.00
2019-03-24T02:32:46.984Z,0.00
2019-03-24T02:33:46.991Z,0.00
2019-03-24T02:34:47.018Z,0.00
2019-03-24T02:35:46.989Z,0.00
2019-03-24T02:36:46.985Z,0.00
2019-03-24T02:37:46.971Z,0.00
2019-03-24T02:38:46.969Z,0.00
2019-03-24T02:39:46.996Z,0.00
2019-03-24T02:40:46.971Z,0.00
2019-03-24T02:41:46.964Z,0.00
2019-03-24T02:42:46.971Z,0.00
2019-03-24T02:43:46.963Z,0.00
2019-03-24T02:44:46.968Z,0.00
2019-03-24T02:45:46.984Z,0.00
2019-03-24T02:46:46.959Z,0.00
2019-03-24T02:47:46.953Z,0.00
2019-03-24T02:48:46.952Z,0.00
2019-03-24T02:49:46.952Z,0.00
2019-03-24T02:50:46.981Z,0.00
2019-03-24T02:51:46.947Z,0.00
2019-03-24T02:52:46.949Z,0.00
2019-03-24T02:53:46.953Z,0.00
2019-03-24T02:54:46.971Z,0.00
2019-03-24T02:55:46.942Z,0.00
2019-03-24T02:56:46.939Z,0.00
2019-03-24T02:57:46.932Z,0.00
2019-03-24T02:58:46.935Z,0.00
2019-03-24T02:59:46.968Z,0.00
2019-03-24T03:00:46.931Z,0.00
2019-03-24T03:01:46.932Z,0.00
2019-03-24T03:02:46.928Z,0.00
2019-03-24T03:03:46.928Z,0.00
2019-03-24T03:04:46.948Z,0.00
2019-03-24T03:05:46.924Z,0.00
2019-03-24T03:06:46.919Z,0.00
2019-03-24T03:07:46.917Z,0.00
2019-03-24T03:08:46.923Z,0.00
2019-03-24T03:09:46.945Z,0.00
2019-03-24T03:10:46.915Z,0.00
2019-03-24T03:11:46.909Z,0.00
2019-03-24T03:12:47.877Z,0.00
2019-03-24T03:13:46.902Z,0.00
2019-03-24T03:14:46.933Z,0.00
2019-03-24T03:15:46.901Z,0.00
2019-03-24T03:16:46.898Z,0.00
2019-03-24T03:17:46.965Z,0.00
2019-03-24T03:18:46.896Z,0.00
2019-03-24T03:19:46.928Z,0.00
2019-03-24T03:20:46.899Z,0.00
2019-03-24T03:21:46.894Z,0.00
2019-03-24T03:22:46.894Z,0.00
2019-03-24T03:23:46.892Z,0.00
2019-03-24T03:24:46.920Z,0.00
2019-03-24T03:25:46.883Z,0.00
2019-03-24T03:26:46.885Z,0.00
2019-03-24T03:27:46.877Z,0.00
2019-03-24T03:28:46.879Z,0.00
2019-03-24T03:29:46.907Z,0.00
2019-03-24T03:30:46.875Z,0.00
2019-03-24T03:31:46.874Z,0.00
2019-03-24T03:32:46.869Z,0.00
2019-03-24T03:33:46.870Z,0.00
2019-03-24T03:34:46.895Z,0.00
2019-03-24T03:35:46.871Z,0.00
2019-03-24T03:36:46.893Z,0.00
2019-03-24T03:37:46.876Z,0.00
2019-03-24T03:38:46.865Z,0.00
2019-03-24T03:39:46.892Z,0.00
2019-03-24T03:40:46.863Z,0.00
2019-03-24T03:41:46.862Z,0.00
2019-03-24T03:42:46.849Z,0.00
2019-03-24T03:43:46.844Z,0.00
2019-03-24T03:44:46.881Z,0.00
2019-03-24T03:45:46.868Z,0.00
2019-03-24T03:46:52.333Z,0.00
2019-03-24T03:47:46.839Z,0.00
2019-03-24T03:48:46.843Z,0.00
2019-03-24T03:49:46.840Z,0.00
2019-03-24T03:50:46.864Z,0.00
2019-03-24T03:51:46.836Z,0.00
2019-03-24T03:52:46.835Z,0.00
2019-03-24T03:53:46.828Z,0.00
2019-03-24T03:54:46.839Z,0.00
2019-03-24T03:55:46.857Z,0.00
2019-03-24T03:56:46.823Z,0.00
2019-03-24T03:57:46.820Z,0.00
2019-03-24T03:58:46.827Z,0.00
2019-03-24T03:59:46.818Z,0.00
2019-03-24T04:00:46.850Z,0.00
2019-03-24T04:01:46.812Z,0.00
2019-03-24T04:02:46.812Z,0.00
2019-03-24T04:03:46.808Z,0.00
2019-03-24T04:04:46.811Z,0.00
2019-03-24T04:05:46.835Z,0.00
2019-03-24T04:06:46.807Z,0.00
2019-03-24T04:07:46.795Z,0.00
2019-03-24T04:08:46.800Z,0.00
2019-03-24T04:09:46.802Z,0.00
2019-03-24T04:10:46.820Z,0.00
2019-03-24T04:11:46.794Z,0.00
2019-03-24T04:12:46.796Z,0.00
2019-03-24T04:13:46.791Z,0.00
2019-03-24T04:14:46.790Z,0.00
2019-03-24T04:15:46.825Z,0.00
2019-03-24T04:16:46.785Z,0.00
2019-03-24T04:17:46.784Z,0.00
2019-03-24T04:18:46.783Z,0.00
2019-03-24T04:19:46.781Z,0.00
2019-03-24T04:20:46.808Z,0.00
2019-03-24T04:21:46.773Z,0.00
2019-03-24T04:22:46.769Z,0.00
2019-03-24T04:23:46.769Z,0.00
2019-03-24T04:24:46.765Z,0.00
2019-03-24T04:25:46.796Z,0.00
2019-03-24T04:26:46.765Z,0.00
2019-03-24T04:27:46.766Z,0.00
2019-03-24T04:28:46.759Z,0.00
2019-03-24T04:29:46.761Z,0.00
2019-03-24T04:30:46.782Z,0.00
2019-03-24T04:31:46.754Z,0.00
2019-03-24T04:32:46.751Z,0.00
2019-03-24T04:33:46.757Z,0.00
2019-03-24T04:34:46.743Z,0.00
2019-03-24T04:35:46.773Z,0.00
2019-03-24T04:36:46.745Z,0.00
2019-03-24T04:37:46.755Z,0.00
2019-03-24T04:38:46.743Z,0.00
2019-03-24T04:39:46.742Z,0.00
2019-03-24T04:40:46.763Z,0.00
2019-03-24T04:41:46.730Z,0.00
2019-03-24T04:42:46.735Z,0.00
2019-03-24T04:43:46.728Z,0.00
2019-03-24T04:44:46.725Z,0.00
2019-03-24T04:45:46.754Z,0.00
2019-03-24T04:46:46.751Z,0.00
2019-03-24T04:47:46.715Z,0.00
2019-03-24T04:48:46.722Z,0.00
2019-03-24T04:49:46.711Z,0.00
2019-03-24T04:50:46.714Z,0.00
2019-03-24T04:51:46.739Z,0.00
2019-03-24T04:52:46.706Z,0.00
2019-03-24T04:53:46.710Z,0.00
2019-03-24T04:54:46.702Z,0.00
2019-03-24T04:55:46.697Z,0.00
2019-03-24T04:56:46.750Z,0.00
2019-03-24T04:57:46.701Z,0.00
2019-03-24T04:58:46.694Z,0.00
2019-03-24T04:59:46.698Z,0.00
2019-03-24T05:00:46.693Z,0.00
2019-03-24T05:01:46.720Z,0.00
2019-03-24T05:02:46.693Z,0.00
2019-03-24T05:03:46.695Z,0.00
2019-03-24T05:04:47.291Z,0.00
2019-03-24T05:05:46.684Z,0.00
2019-03-24T05:06:46.738Z,0.00
2019-03-24T05:07:46.682Z,0.00
2019-03-24T05:08:46.673Z,0.00
2019-03-24T05:09:46.670Z,0.00
2019-03-24T05:10:46.670Z,0.00
2019-03-24T05:11:46.696Z,0.00
2019-03-24T05:12:46.699Z,0.00
2019-03-24T05:13:46.664Z,0.00
2019-03-24T05:14:46.661Z,0.00
2019-03-24T05:15:46.660Z,0.00
2019-03-24T05:16:46.659Z,0.00
2019-03-24T05:17:46.681Z,0.00
2019-03-24T05:18:46.657Z,0.00
2019-03-24T05:19:46.651Z,0.00
2019-03-24T05:20:46.649Z,0.00
2019-03-24T05:21:46.653Z,0.00
2019-03-24T05:22:46.672Z,5.63
2019-03-24T05:23:46.643Z,5.63
2019-03-24T05:24:46.645Z,5.63
2019-03-24T05:25:46.675Z,5.63
2019-03-24T05:26:46.636Z,5.63
2019-03-24T05:27:46.660Z,5.63
2019-03-24T05:28:46.632Z,5.63
2019-03-24T05:29:46.628Z,5.63
2019-03-24T05:30:46.628Z,5.63
2019-03-24T05:31:46.624Z,5.63
2019-03-24T05:32:46.648Z,5.63
2019-03-24T05:33:46.652Z,5.63
2019-03-24T05:34:46.616Z,11.25
2019-03-24T05:35:46.618Z,11.25
2019-03-24T05:36:46.613Z,11.25
2019-03-24T05:37:46.613Z,11.25
2019-03-24T05:38:46.637Z,11.25
2019-03-24T05:39:46.605Z,11.25
2019-03-24T05:40:46.605Z,11.25
2019-03-24T05:41:46.609Z,11.25
2019-03-24T05:42:46.604Z,11.25
2019-03-24T05:43:46.624Z,11.25
2019-03-24T05:44:46.702Z,11.25
2019-03-24T05:45:46.593Z,16.88
2019-03-24T05:46:46.593Z,16.88
2019-03-24T05:47:46.589Z,16.88
2019-03-24T05:48:46.613Z,16.88
2019-03-24T05:49:46.586Z,16.88
2019-03-24T05:50:46.585Z,16.88
2019-03-24T05:51:46.581Z,16.88
2019-03-24T05:52:46.577Z,22.50
2019-03-24T05:53:46.602Z,22.50
2019-03-24T05:54:46.573Z,22.50
2019-03-24T05:55:46.571Z,22.50
2019-03-24T05:56:46.570Z,22.50
2019-03-24T05:57:46.565Z,28.13
2019-03-24T05:58:46.593Z,28.13
2019-03-24T05:59:46.566Z,28.13
2019-03-24T06:00:46.558Z,28.13
2019-03-24T06:01:46.555Z,28.13
2019-03-24T06:02:46.554Z,28.13
2019-03-24T06:03:46.577Z,33.75
2019-03-24T06:04:46.550Z,33.75
2019-03-24T06:05:46.546Z,33.75
2019-03-24T06:06:46.546Z,33.75
2019-03-24T06:07:46.542Z,33.75
2019-03-24T06:08:46.565Z,33.75
2019-03-24T06:09:46.538Z,39.38
2019-03-24T06:10:46.534Z,39.38
2019-03-24T06:11:46.534Z,39.38
2019-03-24T06:12:46.531Z,39.38
2019-03-24T06:13:46.557Z,39.38
2019-03-24T06:14:46.529Z,45.00
2019-03-24T06:15:46.526Z,45.00
2019-03-24T06:16:46.523Z,45.00
2019-03-24T06:17:47.999Z,45.00
2019-03-24T06:18:46.542Z,45.00
2019-03-24T06:19:46.515Z,45.00
2019-03-24T06:20:46.510Z,50.63
2019-03-24T06:21:46.513Z,50.63
2019-03-24T06:22:46.507Z,56.25
2019-03-24T06:23:46.534Z,56.25
2019-03-24T06:24:46.500Z,61.88
2019-03-24T06:25:46.509Z,61.88
2019-03-24T06:26:46.495Z,67.50
2019-03-24T06:27:46.500Z,67.50
2019-03-24T06:28:46.521Z,73.13
2019-03-24T06:29:46.489Z,73.13
2019-03-24T06:30:46.488Z,78.75
2019-03-24T06:31:46.483Z,78.75
2019-03-24T06:32:46.485Z,78.75
2019-03-24T06:33:46.507Z,84.38
2019-03-24T06:34:46.512Z,78.75
2019-03-24T06:35:46.483Z,78.75
2019-03-24T06:36:46.471Z,73.13
2019-03-24T06:37:46.473Z,73.13
2019-03-24T06:38:46.467Z,78.75
2019-03-24T06:39:46.501Z,78.75
2019-03-24T06:40:46.467Z,78.75
2019-03-24T06:41:46.465Z,78.75
2019-03-24T06:42:46.463Z,78.75
2019-03-24T06:43:46.465Z,78.75
2019-03-24T06:44:46.484Z,84.38
2019-03-24T06:45:46.452Z,84.38
2019-03-24T06:46:46.449Z,84.38
2019-03-24T06:47:46.452Z,78.75
2019-03-24T06:48:46.446Z,78.75
2019-03-24T06:49:46.474Z,78.75
2019-03-24T06:50:46.440Z,78.75
2019-03-24T06:51:46.441Z,84.38
2019-03-24T06:52:46.436Z,78.75
2019-03-24T06:53:46.433Z,78.75
2019-03-24T06:54:46.457Z,73.13
2019-03-24T06:55:46.433Z,67.50
2019-03-24T06:56:46.425Z,73.13
2019-03-24T06:57:46.427Z,73.13
2019-03-24T06:58:46.427Z,78.75
2019-03-24T06:59:46.449Z,90.00
2019-03-24T07:00:46.421Z,101.25
2019-03-24T07:01:46.418Z,95.63
2019-03-24T07:02:46.417Z,95.63
2019-03-24T07:03:46.413Z,95.63
2019-03-24T07:04:46.610Z,101.25
2019-03-24T07:05:46.406Z,112.50
2019-03-24T07:06:46.408Z,123.75
2019-03-24T07:07:46.396Z,129.38
2019-03-24T07:08:46.398Z,140.63
2019-03-24T07:09:46.428Z,151.88
2019-03-24T07:10:46.398Z,168.75
2019-03-24T07:11:46.393Z,174.38
2019-03-24T07:12:46.395Z,185.63
2019-03-24T07:13:46.390Z,196.88
2019-03-24T07:14:46.421Z,185.63
2019-03-24T07:15:46.390Z,168.75
2019-03-24T07:16:46.384Z,168.75
2019-03-24T07:17:46.380Z,180.00
2019-03-24T07:18:46.411Z,180.00
2019-03-24T07:19:46.374Z,174.38
2019-03-24T07:20:46.409Z,168.75
2019-03-24T07:21:46.377Z,174.38
2019-03-24T07:22:46.370Z,191.25
2019-03-24T07:23:46.366Z,191.25
2019-03-24T07:24:46.396Z,191.25
2019-03-24T07:25:46.367Z,202.50
2019-03-24T07:26:46.386Z,196.88
2019-03-24T07:27:46.358Z,185.63
2019-03-24T07:28:46.359Z,185.63
2019-03-24T07:29:46.353Z,180.00
2019-03-24T07:30:46.381Z,168.75
2019-03-24T07:31:46.347Z,174.38
2019-03-24T07:32:46.351Z,163.13
2019-03-24T07:33:46.347Z,157.50
2019-03-24T07:34:46.342Z,163.13
2019-03-24T07:35:46.377Z,168.75
2019-03-24T07:36:46.347Z,180.00
2019-03-24T07:37:46.338Z,185.63
2019-03-24T07:38:46.338Z,180.00
2019-03-24T07:39:46.339Z,168.75
2019-03-24T07:40:46.366Z,168.75
2019-03-24T07:41:46.331Z,174.38
2019-03-24T07:42:46.334Z,185.63
2019-03-24T07:43:46.333Z,196.88
2019-03-24T07:44:46.527Z,213.75
2019-03-24T07:45:46.352Z,213.75
2019-03-24T07:46:46.320Z,219.38
2019-03-24T07:47:46.316Z,213.75
2019-03-24T07:48:46.315Z,213.75
2019-03-24T07:49:46.315Z,219.38
2019-03-24T07:50:46.341Z,225.00
2019-03-24T07:51:46.318Z,230.63
2019-03-24T07:52:46.309Z,225.00
2019-03-24T07:53:46.311Z,219.38
2019-03-24T07:54:46.316Z,219.38
2019-03-24T07:55:46.332Z,213.75
2019-03-24T07:56:46.306Z,213.75
2019-03-24T07:57:46.303Z,219.38
2019-03-24T07:58:46.293Z,236.25
2019-03-24T07:59:46.300Z,241.88
2019-03-24T08:00:46.322Z,236.25
2019-03-24T08:01:46.304Z,236.25
2019-03-24T08:02:51.007Z,241.88
2019-03-24T08:03:46.289Z,236.25
2019-03-24T08:04:46.284Z,230.63
2019-03-24T08:05:46.311Z,225.00
2019-03-24T08:06:46.283Z,225.00
2019-03-24T08:07:46.277Z,236.25
2019-03-24T08:08:46.272Z,241.88
2019-03-24T08:09:46.279Z,247.50
2019-03-24T08:10:46.304Z,247.50
2019-03-24T08:11:46.268Z,247.50
2019-03-24T08:12:46.291Z,253.13
2019-03-24T08:13:53.835Z,247.50
2019-03-24T08:14:46.265Z,247.50
2019-03-24T08:15:46.290Z,253.13
2019-03-24T08:16:46.264Z,270.00
2019-03-24T08:17:46.258Z,281.25
2019-03-24T08:18:46.261Z,292.50
2019-03-24T08:19:46.259Z,286.88
2019-03-24T08:20:46.281Z,281.25
2019-03-24T08:21:46.254Z,275.63
2019-03-24T08:22:46.252Z,281.25
2019-03-24T08:23:46.248Z,292.50
2019-03-24T08:24:46.250Z,303.75
2019-03-24T08:25:46.286Z,320.63
2019-03-24T08:26:46.805Z,326.25
2019-03-24T08:27:46.241Z,337.50
2019-03-24T08:28:46.247Z,348.75
2019-03-24T08:29:46.266Z,371.25
2019-03-24T08:30:46.237Z,371.25
2019-03-24T08:31:46.266Z,371.25
2019-03-24T08:32:46.233Z,371.25
2019-03-24T08:33:46.230Z,354.38
2019-03-24T08:34:48.354Z,326.25
2019-03-24T08:35:46.233Z,303.75
2019-03-24T08:36:46.255Z,303.75
2019-03-24T08:37:46.228Z,298.13
2019-03-24T08:38:46.222Z,315.00
2019-03-24T08:39:46.221Z,315.00
2019-03-24T08:40:46.250Z,309.38
2019-03-24T08:41:46.218Z,303.75
2019-03-24T08:42:46.221Z,286.88
2019-03-24T08:43:46.214Z,292.50
2019-03-24T08:44:46.216Z,292.50
2019-03-24T08:45:46.238Z,292.50
2019-03-24T08:46:47.200Z,281.25
2019-03-24T08:47:46.214Z,281.25
2019-03-24T08:48:46.206Z,275.63
2019-03-24T08:49:46.205Z,275.63
2019-03-24T08:50:46.233Z,264.38
2019-03-24T08:51:46.203Z,275.63
2019-03-24T08:52:46.198Z,275.63
2019-03-24T08:53:46.203Z,286.88
2019-03-24T08:54:46.194Z,298.13
2019-03-24T08:55:46.218Z,298.13
2019-03-24T08:56:46.197Z,286.88
2019-03-24T08:57:46.191Z,281.25
2019-03-24T08:58:46.187Z,275.63
2019-03-24T08:59:46.189Z,281.25
2019-03-24T09:00:46.215Z,292.50
2019-03-24T09:01:46.213Z,303.75
2019-03-24T09:02:46.229Z,309.38
2019-03-24T09:03:46.201Z,315.00
2019-03-24T09:04:46.178Z,309.38
2019-03-24T09:05:46.208Z,292.50
2019-03-24T09:06:46.178Z,281.25
2019-03-24T09:07:46.180Z,281.25
2019-03-24T09:08:46.176Z,286.88
2019-03-24T09:09:46.172Z,298.13
2019-03-24T09:10:46.195Z,298.13
2019-03-24T09:11:46.195Z,309.38
2019-03-24T09:12:46.232Z,309.38
2019-03-24T09:13:46.176Z,298.13
2019-03-24T09:14:46.160Z,281.25
2019-03-24T09:15:46.161Z,281.25
2019-03-24T09:16:46.187Z,286.88
2019-03-24T09:17:46.185Z,292.50
2019-03-24T09:18:52.675Z,286.88
2019-03-24T09:19:46.155Z,292.50
2019-03-24T09:20:46.155Z,298.13
2019-03-24T09:21:46.179Z,303.75
2019-03-24T09:22:46.154Z,303.75
2019-03-24T09:23:46.145Z,298.13
2019-03-24T09:24:46.147Z,298.13
2019-03-24T09:25:46.154Z,298.13
2019-03-24T09:26:46.172Z,303.75
2019-03-24T09:27:46.145Z,298.13
2019-03-24T09:28:46.140Z,292.50
2019-03-24T09:29:46.141Z,286.88
2019-03-24T09:30:46.136Z,298.13
2019-03-24T09:31:46.166Z,298.13
2019-03-24T09:32:46.134Z,292.50
2019-03-24T09:33:46.136Z,281.25
2019-03-24T09:34:46.136Z,281.25
2019-03-24T09:35:46.130Z,281.25
2019-03-24T09:36:46.156Z,275.63
2019-03-24T09:37:46.128Z,264.38
2019-03-24T09:38:46.123Z,258.75
2019-03-24T09:39:46.124Z,258.75
2019-03-24T09:40:46.126Z,258.75
2019-03-24T09:41:46.154Z,264.38
2019-03-24T09:42:46.121Z,275.63
2019-03-24T09:43:46.117Z,281.25
2019-03-24T09:44:46.117Z,286.88
2019-03-24T09:45:46.115Z,292.50
2019-03-24T09:46:46.136Z,286.88
2019-03-24T09:47:46.109Z,270.00
2019-03-24T09:48:46.111Z,264.38
2019-03-24T09:49:46.114Z,270.00
2019-03-24T09:50:46.110Z,275.63
2019-03-24T09:51:46.132Z,281.25
2019-03-24T09:52:46.125Z,281.25
2019-03-24T09:53:46.102Z,281.25
2019-03-24T09:54:46.098Z,286.88
2019-03-24T09:55:46.102Z,298.13
2019-03-24T09:56:46.097Z,292.50
2019-03-24T09:57:46.122Z,292.50
2019-03-24T09:58:46.096Z,292.50
2019-03-24T09:59:46.109Z,292.50
2019-03-24T10:00:46.089Z,303.75
2019-03-24T10:01:46.089Z,309.38
2019-03-24T10:02:46.111Z,309.38
2019-03-24T10:03:46.091Z,315.00
2019-03-24T10:04:46.085Z,309.38
2019-03-24T10:05:46.081Z,320.63
2019-03-24T10:06:46.086Z,331.88
2019-03-24T10:07:46.111Z,343.13
2019-03-24T10:08:47.360Z,348.75
2019-03-24T10:09:46.078Z,343.13
2019-03-24T10:10:46.078Z,343.13
2019-03-24T10:11:46.070Z,348.75
2019-03-24T10:12:46.098Z,360.00
2019-03-24T10:13:46.070Z,360.00
2019-03-24T10:14:46.071Z,354.38
2019-03-24T10:15:46.066Z,354.38
2019-03-24T10:16:46.097Z,348.75
2019-03-24T10:17:46.066Z,354.38
2019-03-24T10:18:46.094Z,360.00
2019-03-24T10:19:46.808Z,371.25
2019-03-24T10:20:46.060Z,376.88
2019-03-24T10:21:46.058Z,376.88
2019-03-24T10:22:46.058Z,376.88
2019-03-24T10:23:46.083Z,360.00
2019-03-24T10:24:46.057Z,348.75
2019-03-24T10:25:46.054Z,348.75
2019-03-24T10:26:46.052Z,360.00
2019-03-24T10:27:46.054Z,371.25
2019-03-24T10:28:46.075Z,376.88
2019-03-24T10:29:46.046Z,388.13
2019-03-24T10:30:46.048Z,393.75
2019-03-24T10:31:46.043Z,405.00
2019-03-24T10:32:46.047Z,421.88
2019-03-24T10:33:46.071Z,421.88
2019-03-24T10:34:46.043Z,410.63
2019-03-24T10:35:46.039Z,399.38
2019-03-24T10:36:46.035Z,405.00
2019-03-24T10:37:46.036Z,405.00
2019-03-24T10:38:46.060Z,393.75
2019-03-24T10:39:46.286Z,388.13
2019-03-24T10:40:46.035Z,371.25
2019-03-24T10:41:46.033Z,348.75
2019-03-24T10:42:46.061Z,343.13
2019-03-24T10:43:46.027Z,365.63
2019-03-24T10:44:46.027Z,388.13
2019-03-24T10:45:46.028Z,393.75
2019-03-24T10:46:46.024Z,410.63
2019-03-24T10:47:46.044Z,405.00
2019-03-24T10:48:46.049Z,410.63
2019-03-24T10:49:46.816Z,427.50
2019-03-24T10:50:46.019Z,433.13
2019-03-24T10:51:46.016Z,455.63
2019-03-24T10:52:46.033Z,444.38
2019-03-24T10:53:46.045Z,427.50
2019-03-24T10:54:46.021Z,405.00
2019-03-24T10:55:46.808Z,405.00
2019-03-24T10:56:46.012Z,393.75
2019-03-24T10:57:46.804Z,416.25
2019-03-24T10:58:46.040Z,438.75
2019-03-24T10:59:46.008Z,444.38
2019-03-24T11:00:46.004Z,466.88
2019-03-24T11:01:46.163Z,500.63
2019-03-24T11:02:46.038Z,540.00
2019-03-24T11:03:46.004Z,534.38
2019-03-24T11:04:46.000Z,506.25
2019-03-24T11:05:46.002Z,500.63
2019-03-24T11:06:45.995Z,534.38
2019-03-24T11:07:46.024Z,540.00
2019-03-24T11:08:45.992Z,523.13
2019-03-24T11:09:45.998Z,500.63
2019-03-24T11:10:46.809Z,472.50
2019-03-24T11:11:45.990Z,483.75
2019-03-24T11:12:46.021Z,500.63
2019-03-24T11:13:56.372Z,500.63
2019-03-24T11:14:45.989Z,500.63
2019-03-24T11:15:46.111Z,495.00
2019-03-24T11:16:45.988Z,478.13
2019-03-24T11:17:46.011Z,450.00
2019-03-24T11:18:45.982Z,444.38
2019-03-24T11:19:45.983Z,433.13
2019-03-24T11:20:45.982Z,416.25
2019-03-24T11:21:46.104Z,393.75
2019-03-24T11:22:46.005Z,371.25
2019-03-24T11:23:45.973Z,360.00
2019-03-24T11:24:45.978Z,360.00
2019-03-24T11:25:47.677Z,365.63
2019-03-24T11:26:48.251Z,365.63
2019-03-24T11:27:45.998Z,365.63
2019-03-24T11:28:46.004Z,405.00
2019-03-24T11:29:45.970Z,433.13
2019-03-24T11:30:47.340Z,444.38
2019-03-24T11:31:45.965Z,450.00
2019-03-24T11:32:45.966Z,461.25
2019-03-24T11:33:45.987Z,472.50
2019-03-24T11:34:47.684Z,483.75
2019-03-24T11:35:45.962Z,483.75
2019-03-24T11:36:46.861Z,478.13
2019-03-24T11:37:45.986Z,495.00
2019-03-24T11:38:46.818Z,506.25
2019-03-24T11:39:45.963Z,523.13
2019-03-24T11:40:45.955Z,540.00
2019-03-24T11:41:45.959Z,551.25
2019-03-24T11:42:46.456Z,590.63
2019-03-24T11:43:45.934Z,613.13
2019-03-24T11:44:45.971Z,635.63
2019-03-24T11:45:45.951Z,646.88
2019-03-24T11:46:45.951Z,658.13
2019-03-24T11:47:47.252Z,686.25
2019-03-24T11:48:46.677Z,691.88
2019-03-24T11:49:48.175Z,691.88
2019-03-24T11:50:45.976Z,686.25
2019-03-24T11:51:46.084Z,686.25
2019-03-24T11:52:45.972Z,686.25
2019-03-24T11:53:45.943Z,686.25
2019-03-24T11:54:46.220Z,669.38
2019-03-24T11:55:45.939Z,646.88
2019-03-24T11:56:45.939Z,624.38
2019-03-24T11:57:46.398Z,607.50
2019-03-24T11:58:46.726Z,601.88
2019-03-24T11:59:45.935Z,618.75
2019-03-24T12:00:45.932Z,646.88
2019-03-24T12:01:45.979Z,675.00
2019-03-24T12:02:45.960Z,663.75
2019-03-24T12:03:45.941Z,624.38
2019-03-24T12:04:45.944Z,601.88
2019-03-24T12:05:45.934Z,613.13
2019-03-24T12:06:45.928Z,641.25
2019-03-24T12:07:45.956Z,641.25
2019-03-24T12:08:45.930Z,618.75
2019-03-24T12:09:45.928Z,590.63
2019-03-24T12:10:45.934Z,568.13
2019-03-24T12:11:45.924Z,562.50
2019-03-24T12:12:45.953Z,556.88
2019-03-24T12:13:45.924Z,551.25
2019-03-24T12:14:45.925Z,562.50
2019-03-24T12:15:45.921Z,573.75
2019-03-24T12:16:45.922Z,585.00
2019-03-24T12:17:45.949Z,601.88
2019-03-24T12:18:46.824Z,630.00
2019-03-24T12:19:56.264Z,663.75
2019-03-24T12:20:45.917Z,675.00
2019-03-24T12:21:45.939Z,669.38
2019-03-24T12:22:45.941Z,686.25
2019-03-24T12:23:45.918Z,714.38
2019-03-24T12:24:45.917Z,731.25
2019-03-24T12:25:45.917Z,748.13
2019-03-24T12:26:45.915Z,776.25
2019-03-24T12:27:45.958Z,826.88
2019-03-24T12:28:45.913Z,871.88
2019-03-24T12:29:45.913Z,916.88
2019-03-24T12:30:45.912Z,900.00
2019-03-24T12:31:45.908Z,860.63
2019-03-24T12:32:45.938Z,810.00
2019-03-24T12:33:45.911Z,793.13
2019-03-24T12:34:45.908Z,804.38
2019-03-24T12:35:45.909Z,821.25
2019-03-24T12:36:45.905Z,843.75
2019-03-24T12:37:45.936Z,877.50
2019-03-24T12:38:45.920Z,928.13
2019-03-24T12:39:45.904Z,635.63
2019-03-24T12:40:45.908Z,1074.38
2019-03-24T12:41:45.910Z,1209.38
2019-03-24T12:42:45.939Z,1361.25
2019-03-24T12:43:45.906Z,1434.38
2019-03-24T12:44:45.906Z,1321.88
2019-03-24T12:45:45.910Z,1125.00
2019-03-24T12:46:52.823Z,950.63
2019-03-24T12:47:45.934Z,821.25
2019-03-24T12:48:45.906Z,736.88
2019-03-24T12:49:45.918Z,691.88
2019-03-24T12:50:45.906Z,669.38
2019-03-24T12:51:45.904Z,641.25